Time;durP1;ratioP1;P1;durP2;ratioP2;P2;SDS_P1;SDS_P2;PMS_P1;PMS_P2;Temp;Humidity;BMP_temperature;BMP_pressure;BME280_temperature;BME280_humidity;BME280_pressure;Samples;Min_cycle;Max_cycle;Signal;HPM_P1;HPM_P2
2020/12/23 00:01:18;;;;;;;2.23;1.60;;;12.30;99.90;;;;;;5090620;28;20995;-82
2020/12/23 00:03:45;;;;;;;1.83;1.30;;;12.30;99.90;;;;;;5091890;28;20660;-82
2020/12/23 00:06:13;;;;;;;1.50;1.40;;;12.30;99.90;;;;;;5072047;28;20695;-82
2020/12/23 00:08:39;;;;;;;1.63;1.50;;;12.30;99.90;;;;;;5074760;28;20714;-82
2020/12/23 00:11:06;;;;;;;2.73;1.70;;;12.40;99.90;;;;;;5100324;28;21106;-82
2020/12/23 00:13:33;;;;;;;1.67;1.30;;;12.40;99.90;;;;;;5078160;28;20636;-82
2020/12/23 00:15:59;;;;;;;1.53;1.43;;;12.60;99.90;;;;;;5090394;28;20633;-81
2020/12/23 00:18:28;;;;;;;1.50;1.40;;;12.50;99.90;;;;;;5076336;28;20638;-82
2020/12/23 00:20:55;;;;;;;3.63;1.40;;;12.60;99.90;;;;;;5080913;28;20666;-81
2020/12/23 00:23:21;;;;;;;2.13;1.20;;;12.60;99.90;;;;;;5071479;28;20661;-82
2020/12/23 00:25:47;;;;;;;1.33;1.23;;;12.60;99.90;;;;;;5077027;28;20650;-81
2020/12/23 00:28:14;;;;;;;1.30;1.13;;;12.70;99.90;;;;;;5076198;28;20642;-82
2020/12/23 00:30:41;;;;;;;1.27;1.17;;;12.70;99.90;;;;;;5070839;28;20664;-82
2020/12/23 00:33:08;;;;;;;1.33;1.13;;;12.70;99.90;;;;;;5075836;28;20629;-82
2020/12/23 00:35:34;;;;;;;1.37;1.27;;;12.70;99.90;;;;;;5082643;28;20659;-81
2020/12/23 00:38:00;;;;;;;1.70;1.60;;;12.80;99.90;;;;;;5091022;28;21023;-82
2020/12/23 00:40:27;;;;;;;1.30;1.20;;;12.70;99.90;;;;;;5071643;28;21068;-82
2020/12/23 00:42:53;;;;;;;3.03;1.23;;;12.80;99.90;;;;;;5082028;28;20836;-82
2020/12/23 00:45:23;;;;;;;1.30;1.20;;;12.80;99.90;;;;;;5089060;28;20662;-82
2020/12/23 00:47:50;;;;;;;1.63;1.53;;;12.80;99.90;;;;;;5080120;28;20615;-82
2020/12/23 00:50:17;;;;;;;2.50;1.30;;;12.90;99.90;;;;;;5082720;28;20667;-82
2020/12/23 00:52:43;;;;;;;1.50;1.40;;;12.90;99.90;;;;;;5081925;28;20669;-82
2020/12/23 00:55:10;;;;;;;1.20;1.10;;;13.00;99.90;;;;;;5080299;28;20610;-82
2020/12/23 00:57:36;;;;;;;0.97;0.97;;;13.00;99.90;;;;;;5088272;28;20635;-82
2020/12/23 01:00:04;;;;;;;1.30;1.20;;;12.90;99.90;;;;;;5087129;28;20634;-82
2020/12/23 01:02:31;;;;;;;1.80;1.70;;;13.00;99.90;;;;;;5091037;28;20957;-82
2020/12/23 01:04:59;;;;;;;1.30;1.20;;;13.00;99.90;;;;;;5090340;28;20973;-82
2020/12/23 01:07:25;;;;;;;1.10;1.10;;;12.90;99.90;;;;;;5089765;28;20644;-81
2020/12/23 01:09:51;;;;;;;1.07;0.97;;;12.80;99.90;;;;;;5079894;28;21168;-82
2020/12/23 01:12:18;;;;;;;0.90;0.90;;;12.80;99.90;;;;;;5070468;28;20985;-81
2020/12/23 01:14:44;;;;;;;1.27;1.17;;;12.80;99.90;;;;;;5083292;28;20671;-81
2020/12/23 01:17:11;;;;;;;1.10;1.00;;;12.90;99.90;;;;;;5075870;28;20626;-81
2020/12/23 01:19:38;;;;;;;0.90;0.90;;;12.80;99.90;;;;;;5077373;28;20697;-82
2020/12/23 01:22:05;;;;;;;1.00;0.90;;;12.70;99.90;;;;;;5090780;28;20611;-82
2020/12/23 01:24:31;;;;;;;1.00;0.90;;;12.70;99.90;;;;;;5074761;28;20683;-82
2020/12/23 01:26:58;;;;;;;0.90;0.90;;;12.80;99.90;;;;;;5073712;28;20728;-82
2020/12/23 01:29:24;;;;;;;1.13;1.03;;;12.80;99.90;;;;;;5071674;28;20629;-82
2020/12/23 01:31:51;;;;;;;1.07;0.97;;;12.90;99.90;;;;;;5070443;28;20651;-82
2020/12/23 01:34:17;;;;;;;1.33;1.23;;;13.00;99.90;;;;;;5072044;28;20674;-82
2020/12/23 01:36:48;;;;;;;0.80;0.80;;;12.90;99.90;;;;;;5071533;28;20642;-82
2020/12/23 01:39:15;;;;;;;0.63;0.63;;;12.90;99.90;;;;;;5087461;28;20630;-82
2020/12/23 01:41:42;;;;;;;1.60;0.80;;;13.00;99.90;;;;;;5071057;28;20660;-82
2020/12/23 01:44:08;;;;;;;1.00;1.00;;;13.10;99.90;;;;;;5070130;28;20757;-82
2020/12/23 01:46:36;;;;;;;1.20;0.70;;;13.10;99.90;;;;;;5092630;28;20621;-82
2020/12/23 01:49:05;;;;;;;2.27;0.80;;;13.00;99.90;;;;;;5109623;28;20642;-82
2020/12/23 01:51:32;;;;;;;1.27;0.90;;;13.00;99.90;;;;;;5098363;28;20691;-82
2020/12/23 01:53:59;;;;;;;1.20;1.10;;;13.00;99.90;;;;;;5086062;28;21088;-82
2020/12/23 01:56:26;;;;;;;0.67;0.67;;;13.10;99.90;;;;;;5082336;28;20656;-82
2020/12/23 01:58:53;;;;;;;0.90;0.80;;;13.20;99.90;;;;;;5088412;28;20651;-82
2020/12/23 02:01:21;;;;;;;0.60;0.60;;;13.20;99.90;;;;;;5090074;28;20673;-81
2020/12/23 02:03:50;;;;;;;0.77;0.77;;;13.20;99.90;;;;;;5085879;28;20670;-82
2020/12/23 02:06:19;;;;;;;1.67;0.90;;;13.30;99.90;;;;;;5078518;28;20645;-82
2020/12/23 02:08:49;;;;;;;0.70;0.70;;;13.30;99.90;;;;;;5079389;28;21192;-82
2020/12/23 02:11:19;;;;;;;0.80;0.77;;;13.40;99.90;;;;;;5083841;28;20620;-82
2020/12/23 02:13:47;;;;;;;0.70;0.70;;;13.40;99.90;;;;;;5087099;28;20632;-82
2020/12/23 02:16:15;;;;;;;0.50;0.50;;;13.40;99.90;;;;;;5073950;28;20627;-82
2020/12/23 02:18:44;;;;;;;0.83;0.83;;;13.40;99.90;;;;;;5069344;28;20632;-82
2020/12/23 02:21:15;;;;;;;0.63;0.63;;;13.40;99.90;;;;;;5087911;28;21203;-82
2020/12/23 02:23:50;;;;;;;0.83;0.80;;;13.40;99.90;;;;;;5072144;28;20671;-82
2020/12/23 02:26:24;;;;;;;0.70;0.70;;;13.40;99.90;;;;;;5086242;28;20835;-82
2020/12/23 02:28:54;;;;;;;0.60;0.60;;;13.40;99.90;;;;;;5088716;28;20638;-82
2020/12/23 02:31:23;;;;;;;1.20;0.97;;;13.50;99.90;;;;;;5089145;28;20627;-82
2020/12/23 02:33:52;;;;;;;1.03;0.93;;;13.50;99.90;;;;;;5087034;28;20632;-82
2020/12/23 02:36:19;;;;;;;0.57;0.57;;;13.50;99.90;;;;;;5076932;28;20659;-82
2020/12/23 02:38:46;;;;;;;0.73;0.73;;;13.50;99.90;;;;;;5070980;28;20774;-82
2020/12/23 02:41:16;;;;;;;0.83;0.70;;;13.50;99.90;;;;;;5088832;28;21009;-82
2020/12/23 02:43:44;;;;;;;1.27;1.17;;;13.60;99.90;;;;;;5072145;28;20657;-82
2020/12/23 02:46:12;;;;;;;0.67;0.67;;;13.50;99.90;;;;;;5070836;28;20628;-82
2020/12/23 02:48:40;;;;;;;1.10;1.00;;;13.50;99.90;;;;;;5068915;28;20627;-82
2020/12/23 02:51:07;;;;;;;0.70;0.70;;;13.40;99.90;;;;;;5088347;28;21076;-82
2020/12/23 02:53:34;;;;;;;0.60;0.60;;;13.40;99.90;;;;;;5084802;28;21222;-82
2020/12/23 02:56:04;;;;;;;1.00;0.90;;;13.50;99.90;;;;;;5069236;28;20635;-82
2020/12/23 02:58:32;;;;;;;0.63;0.50;;;13.50;99.90;;;;;;5085243;28;20628;-82
2020/12/23 03:01:02;;;;;;;0.77;0.77;;;13.60;99.90;;;;;;5070716;28;21339;-82
2020/12/23 03:03:31;;;;;;;0.90;0.90;;;13.70;99.90;;;;;;5069260;28;21316;-82
2020/12/23 03:05:59;;;;;;;2.50;0.97;;;13.70;99.90;;;;;;5074017;28;21201;-82
2020/12/23 03:08:27;;;;;;;0.73;0.73;;;13.70;99.90;;;;;;5085077;28;20629;-81
2020/12/23 03:10:57;;;;;;;0.80;0.80;;;13.70;99.90;;;;;;5071867;28;21174;-81
2020/12/23 03:13:24;;;;;;;0.70;0.70;;;13.60;99.90;;;;;;5085743;28;20687;-82
2020/12/23 03:15:52;;;;;;;0.80;0.80;;;13.60;99.90;;;;;;5076128;28;20675;-82
2020/12/23 03:18:19;;;;;;;0.60;0.60;;;13.60;99.90;;;;;;5081922;28;20699;-82
2020/12/23 03:20:48;;;;;;;0.93;0.83;;;13.60;99.90;;;;;;5091126;28;20623;-82
2020/12/23 03:23:15;;;;;;;1.67;1.07;;;13.70;99.90;;;;;;5078181;28;20767;-82
2020/12/23 03:25:42;;;;;;;0.73;0.73;;;13.50;99.90;;;;;;5082299;28;20691;-82
2020/12/23 03:28:09;;;;;;;1.00;0.70;;;13.60;99.90;;;;;;5080375;28;20625;-82
2020/12/23 03:30:36;;;;;;;0.73;0.60;;;13.60;99.90;;;;;;5073562;28;20632;-82
2020/12/23 03:33:03;;;;;;;0.50;0.50;;;13.60;99.90;;;;;;5084551;28;20655;-82
2020/12/23 03:35:29;;;;;;;0.73;0.73;;;13.60;99.90;;;;;;5083004;28;21181;-83
2020/12/23 03:37:56;;;;;;;1.30;1.20;;;13.50;99.90;;;;;;5071707;28;20628;-82
2020/12/23 03:40:22;;;;;;;3.83;1.03;;;13.50;99.90;;;;;;5085243;28;20614;-82
2020/12/23 03:42:48;;;;;;;0.77;0.77;;;13.60;99.90;;;;;;5072235;28;21236;-82
2020/12/23 03:45:15;;;;;;;0.80;0.80;;;13.50;99.90;;;;;;5072936;28;20983;-82
2020/12/23 03:47:41;;;;;;;0.90;0.90;;;13.70;99.90;;;;;;5088937;28;20632;-82
2020/12/23 03:50:09;;;;;;;0.80;0.80;;;13.60;99.90;;;;;;5076871;28;20617;-82
2020/12/23 03:52:35;;;;;;;1.00;0.90;;;13.40;99.90;;;;;;5071678;28;20624;-81
2020/12/23 03:55:01;;;;;;;0.80;0.80;;;13.60;99.90;;;;;;5074941;28;21522;-82
2020/12/23 03:57:28;;;;;;;0.80;0.70;;;13.60;99.90;;;;;;5083196;28;21255;-82
2020/12/23 03:59:54;;;;;;;1.40;0.90;;;13.60;99.90;;;;;;5081718;28;20613;-82
2020/12/23 04:02:20;;;;;;;0.90;0.80;;;13.70;99.90;;;;;;5077748;28;20638;-82
2020/12/23 04:04:47;;;;;;;0.80;0.80;;;13.60;99.80;;;;;;5081486;28;21040;-82
2020/12/23 04:07:14;;;;;;;1.00;0.87;;;13.60;99.90;;;;;;5090582;28;20610;-82
2020/12/23 04:09:40;;;;;;;0.70;0.70;;;13.60;99.90;;;;;;5072969;28;20619;-82
2020/12/23 04:12:07;;;;;;;1.03;0.73;;;13.60;99.70;;;;;;5083431;28;20675;-82
2020/12/23 04:14:33;;;;;;;1.17;0.77;;;13.70;99.70;;;;;;5075114;28;20635;-82
2020/12/23 04:17:00;;;;;;;0.90;0.90;;;13.70;99.60;;;;;;5091252;28;20616;-82
2020/12/23 04:19:26;;;;;;;1.33;0.90;;;13.80;99.50;;;;;;5089825;28;20640;-82
2020/12/23 04:21:53;;;;;;;0.80;0.80;;;13.80;99.60;;;;;;5091722;28;20620;-82
2020/12/23 04:24:20;;;;;;;0.73;0.73;;;13.70;99.50;;;;;;5086947;28;20660;-82
2020/12/23 04:26:46;;;;;;;1.13;0.70;;;13.70;99.30;;;;;;5091634;28;20632;-82
2020/12/23 04:29:13;;;;;;;1.67;0.60;;;13.70;99.20;;;;;;5085262;28;20624;-82
2020/12/23 04:31:39;;;;;;;1.33;1.00;;;13.70;99.20;;;;;;5073639;28;21200;-82
2020/12/23 04:34:06;;;;;;;0.90;0.90;;;13.80;99.80;;;;;;5081669;28;21205;-82
2020/12/23 04:36:32;;;;;;;0.60;0.60;;;13.80;99.40;;;;;;5090081;28;20630;-82
2020/12/23 04:38:58;;;;;;;0.90;0.90;;;13.60;99.90;;;;;;5082027;28;20620;-82
2020/12/23 04:41:27;;;;;;;0.80;0.80;;;13.60;99.90;;;;;;5071165;28;20707;-82
2020/12/23 04:43:54;;;;;;;1.07;0.80;;;13.30;99.90;;;;;;5089301;28;21057;-82
2020/12/23 04:46:30;;;;;;;0.70;0.70;;;13.30;99.90;;;;;;5086902;28;20705;-82
2020/12/23 04:48:58;;;;;;;1.10;1.00;;;13.20;99.90;;;;;;5085485;28;20625;-81
2020/12/23 04:51:30;;;;;;;0.70;0.70;;;13.30;99.90;;;;;;5074968;28;21063;-82
2020/12/23 04:53:57;;;;;;;0.90;0.90;;;13.30;99.90;;;;;;5071624;28;20628;-82
2020/12/23 04:56:28;;;;;;;0.70;0.70;;;13.20;99.90;;;;;;5071387;28;20651;-82
2020/12/23 04:58:55;;;;;;;0.77;0.77;;;13.20;99.90;;;;;;5071143;28;20666;-82
2020/12/23 05:01:22;;;;;;;1.10;1.00;;;13.30;99.90;;;;;;5070069;28;20631;-82
2020/12/23 05:03:49;;;;;;;0.90;0.70;;;13.30;99.90;;;;;;5072416;28;20699;-81
2020/12/23 05:06:16;;;;;;;1.23;1.00;;;13.20;99.90;;;;;;5080533;28;20718;-81
2020/12/23 05:08:42;;;;;;;1.20;1.10;;;13.20;99.90;;;;;;5070817;28;20635;-81
2020/12/23 05:11:10;;;;;;;1.10;1.00;;;13.10;99.90;;;;;;5090744;28;20616;-82
2020/12/23 05:13:39;;;;;;;0.70;0.70;;;13.10;99.90;;;;;;5088800;28;20635;-81
2020/12/23 05:16:06;;;;;;;1.10;1.00;;;13.10;99.90;;;;;;5087726;28;20730;-82
2020/12/23 05:18:33;;;;;;;0.80;0.70;;;13.10;99.90;;;;;;5086612;28;20678;-82
2020/12/23 05:21:00;;;;;;;0.90;0.90;;;13.20;99.90;;;;;;5079492;28;20662;-82
2020/12/23 05:23:31;;;;;;;1.00;1.00;;;13.20;99.90;;;;;;5090091;28;20708;-82
2020/12/23 05:26:03;;;;;;;1.30;1.20;;;13.30;99.90;;;;;;5075364;28;20724;-82
2020/12/23 05:28:30;;;;;;;1.20;1.20;;;13.20;99.90;;;;;;5068680;28;21244;-82
2020/12/23 05:31:01;;;;;;;1.27;1.10;;;13.40;99.90;;;;;;5070344;28;20643;-82
2020/12/23 05:33:27;;;;;;;1.57;1.33;;;13.30;99.90;;;;;;5074328;28;20619;-82
2020/12/23 05:35:55;;;;;;;1.90;1.27;;;13.30;99.90;;;;;;5082895;28;20660;-82
2020/12/23 05:38:21;;;;;;;0.70;0.70;;;13.30;99.90;;;;;;5089832;28;21235;-82
2020/12/23 05:40:48;;;;;;;1.03;1.03;;;13.40;99.90;;;;;;5071113;28;20615;-82
2020/12/23 05:43:15;;;;;;;0.80;0.80;;;13.30;99.90;;;;;;5073813;28;20790;-82
2020/12/23 05:45:43;;;;;;;1.47;0.80;;;13.30;99.90;;;;;;5083410;28;20648;-82
2020/12/23 05:48:13;;;;;;;1.30;0.97;;;13.20;99.90;;;;;;5082485;28;20657;-82
2020/12/23 05:50:39;;;;;;;1.13;1.03;;;13.20;99.90;;;;;;5089502;28;20653;-82
2020/12/23 05:53:11;;;;;;;1.83;1.27;;;13.20;99.90;;;;;;5088235;28;20676;-82
2020/12/23 05:55:44;;;;;;;1.00;1.00;;;13.20;99.90;;;;;;5089110;28;21237;-82
2020/12/23 05:58:10;;;;;;;0.90;0.90;;;13.30;99.90;;;;;;5081713;28;21061;-82
2020/12/23 06:00:38;;;;;;;1.20;1.10;;;13.40;99.90;;;;;;5070776;28;20747;-82
2020/12/23 06:03:14;;;;;;;1.67;1.20;;;13.40;99.90;;;;;;5075840;28;20709;-82
2020/12/23 06:05:44;;;;;;;1.57;1.13;;;13.40;99.90;;;;;;5074688;28;20660;-82
2020/12/23 06:08:11;;;;;;;2.80;1.50;;;13.40;99.90;;;;;;5075058;28;20627;-82
2020/12/23 06:10:41;;;;;;;1.43;1.33;;;13.30;99.90;;;;;;5071776;28;20675;-82
2020/12/23 06:13:12;;;;;;;1.43;1.30;;;13.30;99.90;;;;;;5083541;28;20665;-82
2020/12/23 06:15:42;;;;;;;2.20;1.20;;;13.30;99.90;;;;;;5070660;28;20627;-82
2020/12/23 06:18:16;;;;;;;1.40;1.27;;;13.20;99.90;;;;;;5083512;28;20630;-82
2020/12/23 06:20:45;;;;;;;1.23;1.10;;;13.20;99.90;;;;;;5070212;28;20726;-82
2020/12/23 06:23:25;;;;;;;1.60;1.50;;;13.30;99.90;;;;;;5070457;28;20671;-82
2020/12/23 06:25:53;;;;;;;1.37;1.27;;;13.20;99.90;;;;;;5069983;28;20727;-82
2020/12/23 06:28:22;;;;;;;1.33;1.23;;;13.30;99.90;;;;;;5087359;28;20990;-82
2020/12/23 06:30:51;;;;;;;1.00;1.00;;;13.30;99.90;;;;;;5072249;28;21175;-82
2020/12/23 06:33:18;;;;;;;1.47;1.37;;;13.30;99.90;;;;;;5072845;28;20631;-82
2020/12/23 06:35:46;;;;;;;1.27;1.20;;;13.20;99.90;;;;;;5079819;28;20659;-82
2020/12/23 06:38:20;;;;;;;1.07;1.07;;;13.30;99.90;;;;;;5088031;28;20615;-82
2020/12/23 06:41:04;;;;;;;0.97;0.97;;;13.20;99.90;;;;;;5080952;28;20612;-82
2020/12/23 06:43:59;;;;;;;3.40;1.57;;;13.10;99.90;;;;;;5078616;28;20650;-82
2020/12/23 06:46:25;;;;;;;1.90;1.20;;;13.10;99.90;;;;;;5092402;28;20736;-82
2020/12/23 06:49:15;;;;;;;1.30;1.20;;;13.10;99.90;;;;;;5087868;28;20724;-82
2020/12/23 06:51:42;;;;;;;2.30;1.00;;;13.20;99.90;;;;;;5072780;28;20708;-83
2020/12/23 06:54:09;;;;;;;1.77;1.67;;;13.20;99.90;;;;;;5091287;28;21120;-84
2020/12/23 06:56:45;;;;;;;1.60;1.20;;;13.10;99.90;;;;;;5086592;28;20669;-84
2020/12/23 06:59:41;;;;;;;2.23;1.40;;;13.10;99.90;;;;;;5075056;28;20628;-84
2020/12/23 07:02:07;;;;;;;1.27;1.17;;;13.10;99.90;;;;;;5084518;28;21002;-84
2020/12/23 07:04:35;;;;;;;1.23;1.00;;;13.10;99.90;;;;;;5091700;28;20658;-85
2020/12/23 07:07:27;;;;;;;1.37;1.27;;;13.10;99.90;;;;;;5078637;28;20623;-85
2020/12/23 07:09:54;;;;;;;1.10;1.00;;;13.20;99.90;;;;;;5084163;28;21203;-85
2020/12/23 07:12:24;;;;;;;1.10;1.00;;;13.20;99.90;;;;;;5078672;28;20651;-85
2020/12/23 07:15:06;;;;;;;1.83;1.73;;;13.20;99.90;;;;;;5081623;28;20663;-85
2020/12/23 07:17:34;;;;;;;1.40;1.30;;;13.30;99.90;;;;;;5072148;28;20711;-85
2020/12/23 07:20:03;;;;;;;1.20;1.10;;;13.20;99.90;;;;;;5086291;28;20641;-85
2020/12/23 07:22:31;;;;;;;1.23;1.13;;;13.20;99.90;;;;;;5088682;28;21004;-85
2020/12/23 07:24:59;;;;;;;1.20;1.10;;;13.20;99.90;;;;;;5079833;28;21265;-85
2020/12/23 07:27:27;;;;;;;0.80;0.80;;;13.10;99.90;;;;;;5076720;28;20667;-84
2020/12/23 07:29:55;;;;;;;1.10;1.10;;;13.00;99.90;;;;;;5073481;28;21062;-85
2020/12/23 07:32:24;;;;;;;1.47;1.37;;;13.00;99.90;;;;;;5079782;28;21045;-84
2020/12/23 07:34:50;;;;;;;1.47;1.37;;;13.20;99.90;;;;;;5082433;28;20684;-84
2020/12/23 07:37:17;;;;;;;1.13;1.13;;;13.20;99.90;;;;;;5085524;28;20623;-85
2020/12/23 07:39:48;;;;;;;1.13;1.03;;;13.20;99.90;;;;;;5085003;28;20660;-85
2020/12/23 07:42:18;;;;;;;1.70;1.30;;;13.30;99.90;;;;;;5097646;28;20634;-85
2020/12/23 07:44:50;;;;;;;1.80;1.70;;;13.30;99.90;;;;;;5090049;28;20666;-85
2020/12/23 07:47:22;;;;;;;1.60;1.50;;;13.30;99.90;;;;;;5086773;28;20660;-85
2020/12/23 07:50:01;;;;;;;1.40;1.20;;;13.40;99.70;;;;;;5073093;28;20631;-84
2020/12/23 07:52:28;;;;;;;1.53;1.37;;;13.30;99.60;;;;;;5071873;28;20689;-84
2020/12/23 07:55:10;;;;;;;1.47;1.20;;;13.30;99.60;;;;;;5078792;28;21031;-84
2020/12/23 07:57:36;;;;;;;1.40;1.30;;;13.40;99.50;;;;;;5078670;28;21141;-84
2020/12/23 08:00:05;;;;;;;1.70;1.40;;;13.20;99.40;;;;;;5078601;28;20667;-84
2020/12/23 08:02:32;;;;;;;1.07;1.03;;;13.20;99.40;;;;;;5087052;28;20673;-84
2020/12/23 08:04:58;;;;;;;1.43;1.33;;;13.10;99.30;;;;;;5074679;28;20659;-85
2020/12/23 08:07:25;;;;;;;2.17;1.97;;;13.10;99.50;;;;;;5077757;28;20635;-85
2020/12/23 08:09:52;;;;;;;1.90;1.80;;;13.30;99.70;;;;;;5088302;28;20656;-85
2020/12/23 08:12:20;;;;;;;1.33;1.23;;;13.30;99.50;;;;;;5091526;28;20612;-85
2020/12/23 08:14:47;;;;;;;1.67;1.23;;;13.30;99.40;;;;;;5083709;28;20996;-84
2020/12/23 08:17:20;;;;;;;1.63;1.53;;;13.40;99.30;;;;;;5088507;28;21025;-84
2020/12/23 08:19:47;;;;;;;1.30;1.20;;;13.50;99.30;;;;;;5082174;28;20655;-84
2020/12/23 08:22:14;;;;;;;2.40;1.97;;;13.40;99.00;;;;;;5086240;28;20634;-84
2020/12/23 08:24:40;;;;;;;1.70;1.50;;;13.50;99.10;;;;;;5083652;28;20666;-85
2020/12/23 08:27:07;;;;;;;2.47;1.30;;;13.40;99.10;;;;;;5090852;28;20618;-84
2020/12/23 08:29:34;;;;;;;1.87;1.63;;;13.60;99.10;;;;;;5086587;28;20666;-82
2020/12/23 08:32:04;;;;;;;1.33;1.23;;;13.50;98.80;;;;;;5088859;28;20661;-84
2020/12/23 08:34:31;;;;;;;1.60;1.50;;;13.50;99.30;;;;;;5088788;28;20641;-84
2020/12/23 08:36:58;;;;;;;1.20;1.10;;;13.50;98.80;;;;;;5086414;28;20669;-84
2020/12/23 08:39:27;;;;;;;1.60;1.50;;;13.50;98.80;;;;;;5088439;28;20627;-84
2020/12/23 08:41:54;;;;;;;1.60;1.50;;;13.60;98.90;;;;;;5089507;28;20635;-84
2020/12/23 08:44:21;;;;;;;1.20;1.10;;;13.60;98.50;;;;;;5082042;28;20675;-84
2020/12/23 08:46:49;;;;;;;1.43;1.33;;;13.60;98.70;;;;;;5088054;28;20615;-84
2020/12/23 08:49:16;;;;;;;2.30;1.50;;;13.70;98.70;;;;;;5080677;28;20659;-85
2020/12/23 08:51:43;;;;;;;1.30;1.20;;;13.90;98.60;;;;;;5089338;28;20974;-85
2020/12/23 08:54:13;;;;;;;1.27;1.10;;;14.00;98.50;;;;;;5084304;28;20616;-84
2020/12/23 08:56:46;;;;;;;1.50;1.40;;;14.00;98.20;;;;;;5077112;28;20995;-85
2020/12/23 08:59:14;;;;;;;1.50;1.40;;;14.00;98.50;;;;;;5086655;28;20620;-84
2020/12/23 09:01:40;;;;;;;1.57;1.47;;;14.00;98.10;;;;;;5085027;28;20754;-84
2020/12/23 09:04:08;;;;;;;2.07;1.20;;;14.10;98.10;;;;;;5086075;28;21235;-84
2020/12/23 09:06:36;;;;;;;1.20;1.10;;;13.90;98.10;;;;;;5071511;28;20677;-85
2020/12/23 09:09:11;;;;;;;1.27;1.17;;;14.10;97.90;;;;;;5084920;28;20969;-84
2020/12/23 09:11:49;;;;;;;1.43;1.33;;;14.00;97.90;;;;;;5090059;28;21036;-84
2020/12/23 09:14:20;;;;;;;1.70;1.60;;;14.10;97.80;;;;;;5084299;28;21193;-84
2020/12/23 09:16:57;;;;;;;1.53;1.37;;;14.20;98.00;;;;;;5070976;28;20721;-83
2020/12/23 09:19:48;;;;;;;1.40;1.30;;;14.30;97.70;;;;;;5081372;28;20635;-84
2020/12/23 09:22:27;;;;;;;1.20;1.10;;;14.40;97.60;;;;;;5080012;28;21028;-84
2020/12/23 09:25:10;;;;;;;1.80;1.70;;;14.40;97.60;;;;;;5080459;28;21349;-84
2020/12/23 09:27:36;;;;;;;1.77;1.60;;;14.40;97.60;;;;;;5082109;28;20667;-84
2020/12/23 09:30:37;;;;;;;2.43;1.70;;;14.30;97.70;;;;;;5087606;28;21200;-85
2020/12/23 09:33:04;;;;;;;1.87;1.30;;;14.40;97.60;;;;;;5084317;28;20624;-84
2020/12/23 09:35:32;;;;;;;1.60;1.50;;;14.50;97.50;;;;;;5086884;28;20626;-84
2020/12/23 09:38:12;;;;;;;3.07;1.50;;;14.50;97.40;;;;;;5080271;28;20621;-85
2020/12/23 09:40:41;;;;;;;1.53;1.13;;;14.50;97.40;;;;;;5081146;28;20616;-84
2020/12/23 09:43:12;;;;;;;1.30;1.20;;;14.60;97.60;;;;;;5086863;28;20639;-84
2020/12/23 09:45:39;;;;;;;4.03;1.73;;;14.50;97.10;;;;;;5087295;28;20617;-85
2020/12/23 09:48:06;;;;;;;2.10;1.30;;;14.60;97.40;;;;;;5085389;28;20658;-84
2020/12/23 09:50:33;;;;;;;1.30;1.20;;;14.60;97.20;;;;;;5084376;28;21169;-84
2020/12/23 09:53:00;;;;;;;2.47;2.27;;;14.70;97.10;;;;;;5084741;28;20659;-84
2020/12/23 09:55:26;;;;;;;1.67;1.57;;;14.70;97.00;;;;;;5079778;28;20672;-83
2020/12/23 09:57:53;;;;;;;1.70;1.60;;;14.60;96.80;;;;;;5069390;28;20624;-84
2020/12/23 10:00:20;;;;;;;1.43;1.27;;;14.40;97.10;;;;;;5082420;28;21368;-84
2020/12/23 10:02:47;;;;;;;1.20;1.10;;;14.30;97.10;;;;;;5088177;28;20624;-84
2020/12/23 10:05:13;;;;;;;1.20;1.10;;;14.30;97.10;;;;;;5078467;28;20748;-84
2020/12/23 10:07:41;;;;;;;1.57;1.20;;;14.30;97.00;;;;;;5082350;28;20636;-84
2020/12/23 10:10:07;;;;;;;2.10;1.40;;;14.40;97.00;;;;;;5088064;28;20628;-84
2020/12/23 10:12:34;;;;;;;1.80;1.40;;;14.40;96.90;;;;;;5079540;28;20625;-84
2020/12/23 10:15:00;;;;;;;1.90;1.80;;;14.30;97.20;;;;;;5079829;28;20632;-84
2020/12/23 10:17:27;;;;;;;1.17;1.07;;;14.40;96.90;;;;;;5083455;28;20689;-85
2020/12/23 10:19:53;;;;;;;1.93;1.37;;;14.40;96.90;;;;;;5085319;28;20623;-85
2020/12/23 10:22:20;;;;;;;1.33;1.23;;;14.40;96.90;;;;;;5079175;28;20617;-84
2020/12/23 10:24:47;;;;;;;1.83;1.40;;;14.20;96.60;;;;;;5078481;28;20675;-83
2020/12/23 10:27:18;;;;;;;1.63;1.53;;;14.30;97.30;;;;;;5077879;28;20629;-84
2020/12/23 10:29:45;;;;;;;1.47;1.33;;;14.40;97.30;;;;;;5077304;28;20628;-85
2020/12/23 10:32:11;;;;;;;1.40;1.30;;;14.30;97.30;;;;;;5081917;28;21447;-85
2020/12/23 10:34:38;;;;;;;2.10;1.73;;;14.40;97.00;;;;;;5076830;28;20959;-84
2020/12/23 10:37:04;;;;;;;1.77;1.67;;;14.60;97.00;;;;;;5079905;28;20637;-83
2020/12/23 10:39:31;;;;;;;2.17;1.30;;;14.50;96.90;;;;;;5079757;28;20963;-84
2020/12/23 10:41:58;;;;;;;2.20;1.70;;;14.70;96.70;;;;;;5082834;28;21271;-84
2020/12/23 10:44:25;;;;;;;1.80;1.20;;;14.20;96.50;;;;;;5069693;28;20981;-84
2020/12/23 10:46:55;;;;;;;3.13;1.80;;;14.70;96.50;;;;;;5068828;28;21015;-84
2020/12/23 10:49:23;;;;;;;1.40;1.30;;;14.80;96.70;;;;;;5070683;28;20644;-84
2020/12/23 10:51:50;;;;;;;1.27;1.20;;;14.80;97.00;;;;;;5068710;28;21233;-85
2020/12/23 10:54:17;;;;;;;1.30;1.20;;;15.10;96.90;;;;;;5073714;28;21374;-84
2020/12/23 10:56:43;;;;;;;2.00;1.60;;;15.00;96.50;;;;;;5077188;28;20645;-85
2020/12/23 10:59:11;;;;;;;1.27;1.17;;;15.00;96.60;;;;;;5086879;28;20616;-85
2020/12/23 11:01:37;;;;;;;1.40;1.30;;;15.00;96.70;;;;;;5090070;28;20689;-84
2020/12/23 11:04:05;;;;;;;2.00;1.80;;;14.90;96.90;;;;;;5082013;28;21449;-85
2020/12/23 11:06:32;;;;;;;1.70;1.57;;;15.00;97.10;;;;;;5084430;28;20617;-85
2020/12/23 11:08:58;;;;;;;2.30;1.70;;;15.00;97.00;;;;;;5086684;28;20621;-84
2020/12/23 11:11:25;;;;;;;1.40;1.30;;;15.20;97.00;;;;;;5085843;28;20613;-85
2020/12/23 11:13:51;;;;;;;1.30;1.20;;;15.10;96.80;;;;;;5088933;28;20613;-84
2020/12/23 11:16:19;;;;;;;2.23;1.80;;;15.10;97.10;;;;;;5090138;28;20644;-85
2020/12/23 11:18:46;;;;;;;1.30;1.20;;;15.30;97.10;;;;;;5079876;28;20636;-84
2020/12/23 11:21:12;;;;;;;2.13;1.60;;;15.20;96.60;;;;;;5070250;28;21146;-83
2020/12/23 11:23:39;;;;;;;1.33;1.23;;;15.10;96.70;;;;;;5083519;28;20621;-85
2020/12/23 11:26:05;;;;;;;0.90;0.90;;;15.10;96.70;;;;;;5090170;28;20675;-84
2020/12/23 11:28:32;;;;;;;1.50;1.10;;;15.10;96.50;;;;;;5086755;28;20643;-83
2020/12/23 11:30:59;;;;;;;5.07;1.30;;;15.00;96.80;;;;;;5087867;28;20616;-84
2020/12/23 11:33:27;;;;;;;2.70;1.03;;;15.00;96.40;;;;;;5083620;28;20771;-84
2020/12/23 11:36:04;;;;;;;1.83;1.40;;;15.00;96.70;;;;;;5085235;28;20644;-87
2020/12/23 11:38:30;;;;;;;1.40;1.30;;;15.10;96.40;;;;;;5085913;28;20625;-87
2020/12/23 11:40:57;;;;;;;2.10;1.53;;;15.00;96.30;;;;;;5090886;28;20970;-84
2020/12/23 11:43:23;;;;;;;1.30;1.20;;;15.10;96.00;;;;;;5088304;28;20636;-85
2020/12/23 11:45:50;;;;;;;1.80;1.33;;;15.00;95.70;;;;;;5089460;28;21371;-85
2020/12/23 11:48:17;;;;;;;1.73;1.63;;;15.20;96.00;;;;;;5091063;28;20544;-84
2020/12/23 11:50:44;;;;;;;2.00;1.23;;;15.30;96.00;;;;;;5077609;28;20640;-84
2020/12/23 11:53:12;;;;;;;1.50;1.40;;;15.20;96.00;;;;;;5084002;28;20623;-85
2020/12/23 11:55:38;;;;;;;1.93;1.40;;;15.20;96.00;;;;;;5089445;28;20625;-85
2020/12/23 11:58:05;;;;;;;1.13;1.03;;;15.30;95.50;;;;;;5080594;28;20605;-84
2020/12/23 12:00:31;;;;;;;1.43;0.80;;;15.10;95.40;;;;;;5088198;28;20632;-85
2020/12/23 12:02:58;;;;;;;1.37;1.10;;;15.00;94.90;;;;;;5087456;28;21392;-85
2020/12/23 12:05:24;;;;;;;2.07;1.50;;;14.90;95.30;;;;;;5080415;28;20626;-86
2020/12/23 12:07:52;;;;;;;1.67;1.37;;;14.90;95.50;;;;;;5079610;28;20621;-85
2020/12/23 12:10:18;;;;;;;0.97;0.97;;;15.10;95.60;;;;;;5086242;28;20635;-85
2020/12/23 12:12:44;;;;;;;2.10;1.30;;;15.20;95.40;;;;;;5078312;28;21506;-85
2020/12/23 12:15:11;;;;;;;1.87;1.20;;;15.20;94.90;;;;;;5078963;28;20746;-85
2020/12/23 12:17:37;;;;;;;2.10;1.23;;;15.10;94.90;;;;;;5085149;28;20628;-85
2020/12/23 12:20:04;;;;;;;0.87;0.80;;;15.20;95.10;;;;;;5090122;28;20671;-85
2020/12/23 12:22:30;;;;;;;0.90;0.90;;;15.30;94.80;;;;;;5091974;28;21157;-85
2020/12/23 12:24:58;;;;;;;7.07;1.27;;;15.10;94.20;;;;;;5089803;28;20635;-84
2020/12/23 12:27:24;;;;;;;1.20;1.10;;;15.20;94.70;;;;;;5080864;28;21161;-85
2020/12/23 12:29:50;;;;;;;1.00;1.00;;;15.20;94.80;;;;;;5091310;28;20632;-85
2020/12/23 12:32:17;;;;;;;1.27;1.17;;;15.10;94.80;;;;;;5084891;28;20609;-86
2020/12/23 12:34:43;;;;;;;1.37;1.27;;;15.10;94.90;;;;;;5077304;28;20660;-85
2020/12/23 12:37:09;;;;;;;1.23;1.13;;;15.20;94.70;;;;;;5085871;28;20644;-85
2020/12/23 12:39:36;;;;;;;1.50;1.37;;;15.10;93.90;;;;;;5083104;28;20668;-84
2020/12/23 12:42:03;;;;;;;1.37;1.20;;;15.20;94.80;;;;;;5085699;28;20629;-85
2020/12/23 12:44:30;;;;;;;1.20;1.10;;;15.20;94.70;;;;;;5077991;28;20624;-86
2020/12/23 12:46:56;;;;;;;1.90;1.00;;;15.30;94.50;;;;;;5105665;28;21222;-85
2020/12/23 12:49:23;;;;;;;1.27;1.17;;;15.30;94.60;;;;;;5102110;28;20655;-85
2020/12/23 12:51:50;;;;;;;1.33;1.13;;;15.30;93.80;;;;;;5091664;28;20601;-85
2020/12/23 12:54:17;;;;;;;1.53;1.10;;;15.10;94.00;;;;;;5086639;28;20657;-84